Aviation Digital Data Service (ADDS)

Output produced by TAFs form (0843 UTC 25 October 2014)
found at http://aviationweather.gov/adds/tafs/
 
KPUB 250526Z 2506/2606 VRB06KT P6SM SKC 
     FM252000 12007KT P6SM FEW250 
     FM260200 VRB06KT P6SM FEW250